Bamako, Mali
Current Conditions -  °F | °C
As of 12:30 AM on Tuesday 21 Oct 2014 (Local Time) from GABS Reporting Station
Clear Clear  
Wind Chill: 75°   Ceiling: Unl
Heat Index: 75°   Visibility: 6mi
Dew Point: 70°   Wind: 2mph
Humidity: 83%   Direction: 30°NNE
Pressure: 29.97"   Gusts: NA
Location:  12.65°N, 7.99°W
Report Text: GABS 210030Z 03002KT CAVOK 24/21 Q1015 NOSIG
Loading
Personal Weather Stations






























Interactive Weather Map
Tropical Storm Tracking
New forecast layout! Learn more

10-Day Weather Forecast

Advertisements
Track Severe Weather on mobile